Wetterdaten: Woche 12.10.15 - 18.10.15 (KW42)
Datum Zeit Temp. A. Feuchte A. Luftdruck Regen Wind Richtung Taupunkt Windchill Windben
12.10.2015 00:00 5,4 C 65 % 1015,8 hPa 0,0 l/m 6,8 km/h N -0,7 C 4,9 C 20,5 km/h
12.10.2015 01:00 4,8 C 67 % 1015,9 hPa 0,0 l/m 6,7 km/h N -0,8 C 4,4 C 22,1 km/h
12.10.2015 02:00 4,1 C 69 % 1016,0 hPa 0,0 l/m 6,3 km/h N -1,1 C 4,0 C 19,3 km/h
12.10.2015 03:00 3,5 C 71 % 1016,0 hPa 0,0 l/m 5,2 km/h N -1,3 C 3,5 C 17,3 km/h
12.10.2015 04:00 3,0 C 73 % 1016,0 hPa 0,0 l/m 3,7 km/h N -1,5 C 3,0 C 14,1 km/h
12.10.2015 05:00 2,6 C 75 % 1016,3 hPa 0,0 l/m 4,4 km/h N -1,5 C 2,6 C 14,5 km/h
12.10.2015 06:00 2,1 C 76 % 1016,7 hPa 0,0 l/m 2,9 km/h N -1,7 C 2,1 C 10,5 km/h
12.10.2015 07:00 2,0 C 76 % 1017,2 hPa 0,0 l/m 3,4 km/h N -1,8 C 2,0 C 11,3 km/h
12.10.2015 08:00 2,6 C 75 % 1017,6 hPa 0,0 l/m 4,6 km/h N -1,3 C 2,6 C 16,9 km/h
12.10.2015 09:00 3,9 C 71 % 1017,8 hPa 0,0 l/m 9,0 km/h N -0,8 C 1,7 C 20,5 km/h
12.10.2015 10:00 4,5 C 69 % 1018,1 hPa 0,0 l/m 9,0 km/h N -0,7 C 2,2 C 22,9 km/h
12.10.2015 11:00 4,7 C 69 % 1018,5 hPa 0,0 l/m 8,6 km/h N -0,5 C 2,8 C 20,5 km/h
12.10.2015 12:00 5,2 C 69 % 1018,6 hPa 0,0 l/m 8,3 km/h N 0,0 C 3,6 C 22,1 km/h
12.10.2015 13:00 5,8 C 68 % 1018,3 hPa 0,0 l/m 8,0 km/h N 0,4 C 4,5 C 19,7 km/h
12.10.2015 14:00 6,8 C 66 % 1018,2 hPa 0,0 l/m 6,3 km/h N 0,9 C 6,3 C 17,7 km/h
12.10.2015 15:00 7,6 C 64 % 1018,2 hPa 0,0 l/m 4,4 km/h N 1,2 C 7,6 C 14,1 km/h
12.10.2015 16:00 7,6 C 65 % 1018,3 hPa 0,0 l/m 2,3 km/h N 1,4 C 7,6 C 8,9 km/h
12.10.2015 17:00 7,0 C 68 % 1018,5 hPa 0,0 l/m 0,3 km/h N 1,5 C 7,0 C 4,4 km/h
12.10.2015 18:00 5,4 C 71 % 1019,1 hPa 0,0 l/m 0,0 km/h N 0,5 C 5,4 C 0,4 km/h
12.10.2015 19:00 3,6 C 75 % 1019,8 hPa 0,0 l/m 0,0 km/h N -0,5 C 3,6 C 0,0 km/h
12.10.2015 20:00 2,2 C 79 % 1020,1 hPa 0,0 l/m 0,0 km/h N -1,1 C 2,2 C 0,4 km/h
12.10.2015 21:00 1,2 C 82 % 1020,1 hPa 0,0 l/m 0,0 km/h N -1,6 C 1,2 C 0,0 km/h
12.10.2015 22:00 0,4 C 83 % 1020,2 hPa 0,0 l/m 0,0 km/h N -2,2 C 0,4 C 0,0 km/h
12.10.2015 23:00 -0,3 C 83 % 1019,9 hPa 0,0 l/m 0,0 km/h N -2,8 C -0,3 C 0,0 km/h
13.10.2015 00:00 -0,7 C 84 % 1019,7 hPa 0,0 l/m 0,0 km/h N -3,0 C -0,7 C 0,0 km/h
13.10.2015 01:00 -0,1 C 84 % 1019,5 hPa 0,0 l/m 0,0 km/h N -2,5 C -0,1 C 0,0 km/h
13.10.2015 02:00 1,3 C 83 % 1019,1 hPa 0,0 l/m 0,0 km/h N -1,3 C 1,3 C 0,0 km/h
13.10.2015 03:00 1,9 C 83 % 1018,7 hPa 0,0 l/m 0,0 km/h N -0,7 C 1,9 C 0,0 km/h
13.10.2015 04:00 2,0 C 83 % 1018,5 hPa 0,0 l/m 0,1 km/h N -0,6 C 2,0 C 0,8 km/h
13.10.2015 05:00 2,0 C 83 % 1018,4 hPa 0,0 l/m 0,1 km/h N -0,5 C 2,0 C 0,8 km/h
13.10.2015 06:00 1,9 C 83 % 1018,6 hPa 0,0 l/m 0,1 km/h N -0,7 C 1,9 C 2,4 km/h
13.10.2015 07:00 1,9 C 84 % 1018,7 hPa 0,0 l/m 0,1 km/h N -0,6 C 1,9 C 1,2 km/h
13.10.2015 08:00 2,2 C 84 % 1018,6 hPa 0,0 l/m 0,2 km/h N -0,3 C 2,2 C 2,8 km/h
13.10.2015 09:00 2,6 C 84 % 1018,9 hPa 0,0 l/m 0,3 km/h N 0,1 C 2,6 C 4,0 km/h
13.10.2015 10:00 3,2 C 84 % 1018,9 hPa 0,0 l/m 0,3 km/h N 0,6 C 3,2 C 3,6 km/h
13.10.2015 11:00 4,1 C 84 % 1018,7 hPa 0,0 l/m 0,4 km/h N 1,5 C 4,1 C 4,0 km/h
13.10.2015 12:00 5,0 C 83 % 1018,4 hPa 0,0 l/m 0,4 km/h N 2,4 C 5,0 C 4,4 km/h
13.10.2015 13:00 5,4 C 83 % 1018,1 hPa 0,0 l/m 0,6 km/h N 2,7 C 5,4 C 4,8 km/h
13.10.2015 14:00 6,0 C 83 % 1017,7 hPa 0,0 l/m 0,7 km/h N 3,3 C 6,0 C 5,6 km/h
13.10.2015 15:00 6,3 C 83 % 1017,4 hPa 0,0 l/m 0,7 km/h N 3,6 C 6,3 C 5,6 km/h
13.10.2015 16:00 6,5 C 83 % 1017,0 hPa 0,0 l/m 0,3 km/h N 3,8 C 6,5 C 4,0 km/h
13.10.2015 17:00 6,6 C 83 % 1016,8 hPa 0,0 l/m 0,1 km/h N 4,0 C 6,6 C 2,4 km/h
13.10.2015 18:00 6,8 C 83 % 1016,6 hPa 0,0 l/m 0,1 km/h N 4,1 C 6,8 C 3,6 km/h
13.10.2015 19:00 7,3 C 83 % 1016,4 hPa 0,0 l/m 0,4 km/h N 4,6 C 7,3 C 4,0 km/h
13.10.2015 20:00 7,8 C 83 % 1016,3 hPa 0,0 l/m 2,1 km/h N 5,1 C 7,8 C 9,3 km/h
13.10.2015 21:00 7,8 C 82 % 1016,1 hPa 0,0 l/m 2,3 km/h N 4,9 C 7,8 C 11,3 km/h
13.10.2015 22:00 7,8 C 82 % 1015,9 hPa 0,0 l/m 0,9 km/h N 4,9 C 7,8 C 7,6 km/h
13.10.2015 23:00 7,9 C 82 % 1015,6 hPa 0,0 l/m 0,8 km/h N 5,0 C 7,9 C 7,2 km/h
14.10.2015 00:00 8,1 C 81 % 1015,0 hPa 0,0 l/m 1,5 km/h N 5,0 C 8,1 C 8,4 km/h
14.10.2015 01:00 8,3 C 81 % 1014,6 hPa 0,0 l/m 1,3 km/h N 5,2 C 8,3 C 8,4 km/h
14.10.2015 02:00 8,5 C 80 % 1014,3 hPa 0,0 l/m 2,9 km/h N 5,3 C 8,5 C 12,1 km/h
14.10.2015 03:00 8,7 C 80 % 1014,0 hPa 0,5 l/m 1,1 km/h N 5,4 C 8,7 C 7,3 km/h
14.10.2015 04:00 8,7 C 80 % 1013,7 hPa 2,1 l/m 0,6 km/h N 5,5 C 8,7 C 5,2 km/h
14.10.2015 05:00 8,6 C 80 % 1013,2 hPa 2,3 l/m 1,8 km/h N 5,3 C 8,6 C 11,7 km/h
14.10.2015 06:00 8,5 C 80 % 1013,2 hPa 0,5 l/m 1,0 km/h N 5,2 C 8,5 C 7,2 km/h
14.10.2015 07:00 8,4 C 80 % 1014,2 hPa 0,0 l/m 0,0 km/h N 5,2 C 8,4 C 1,2 km/h
14.10.2015 08:00 8,4 C 80 % 1015,1 hPa 0,0 l/m 0,0 km/h N 5,2 C 8,4 C 0,0 km/h
14.10.2015 09:00 8,4 C 80 % 1015,7 hPa 0,0 l/m 0,0 km/h N 5,2 C 8,4 C 0,0 km/h
14.10.2015 10:00 7,1 C 80 % 1015,9 hPa 1,8 l/m 0,8 km/h N 3,9 C 7,1 C 5,6 km/h
14.10.2015 11:00 7,5 C 80 % 1015,6 hPa 0,3 l/m 1,7 km/h N 4,3 C 7,5 C 7,6 km/h
14.10.2015 12:00 8,1 C 82 % 1015,6 hPa 0,3 l/m 0,7 km/h N 5,2 C 8,1 C 5,6 km/h
14.10.2015 13:00 8,6 C 83 % 1015,5 hPa 0,0 l/m 1,6 km/h N 5,9 C 8,6 C 6,4 km/h
14.10.2015 14:00 9,0 C 83 % 1015,4 hPa 0,0 l/m 0,3 km/h N 6,3 C 9,0 C 3,6 km/h
14.10.2015 15:00 9,3 C 83 % 1015,2 hPa 0,0 l/m 0,6 km/h N 6,5 C 9,3 C 5,2 km/h
14.10.2015 16:00 9,4 C 83 % 1015,4 hPa 0,0 l/m 0,5 km/h N 6,6 C 9,4 C 4,4 km/h
14.10.2015 17:00 9,3 C 83 % 1015,2 hPa 0,0 l/m 0,1 km/h N 6,5 C 9,3 C 0,8 km/h
14.10.2015 18:00 9,1 C 83 % 1015,3 hPa 0,0 l/m 0,0 km/h N 6,4 C 9,1 C 0,4 km/h
14.10.2015 19:00 8,9 C 83 % 1015,4 hPa 0,0 l/m 0,1 km/h N 6,1 C 8,9 C 1,2 km/h
14.10.2015 20:00 8,6 C 83 % 1015,0 hPa 0,0 l/m 1,0 km/h N 5,9 C 8,6 C 4,8 km/h
14.10.2015 21:00 8,2 C 82 % 1014,8 hPa 0,3 l/m 0,4 km/h N 5,4 C 8,2 C 2,8 km/h
14.10.2015 22:00 8,3 C 82 % 1014,8 hPa 1,0 l/m 0,0 km/h N 5,4 C 8,3 C 1,2 km/h
14.10.2015 23:00 8,4 C 82 % 1014,2 hPa 2,1 l/m 0,0 km/h N 5,5 C 8,4 C 0,0 km/h
15.10.2015 00:00 8,6 C 81 % 1013,7 hPa 1,8 l/m 0,0 km/h N 5,6 C 8,6 C 0,0 km/h
15.10.2015 01:00 8,8 C 81 % 1013,3 hPa 1,0 l/m 0,0 km/h N 5,7 C 8,8 C 0,0 km/h
15.10.2015 02:00 9,0 C 82 % 1012,8 hPa 0,5 l/m 0,0 km/h N 6,1 C 9,0 C 0,0 km/h
15.10.2015 03:00 9,2 C 81 % 1012,2 hPa 0,8 l/m 0,0 km/h N 6,1 C 9,2 C 0,0 km/h
15.10.2015 04:00 9,3 C 81 % 1011,8 hPa 0,5 l/m 0,0 km/h N 6,2 C 9,3 C 0,8 km/h
15.10.2015 05:00 9,5 C 80 % 1011,4 hPa 0,5 l/m 0,0 km/h N 6,2 C 9,5 C 1,2 km/h
15.10.2015 06:00 9,5 C 80 % 1011,3 hPa 0,5 l/m 0,0 km/h N 6,2 C 9,5 C 0,0 km/h
15.10.2015 07:00 9,4 C 80 % 1010,9 hPa 0,0 l/m 0,0 km/h N 6,2 C 9,4 C 0,0 km/h
15.10.2015 08:00 9,4 C 80 % 1011,4 hPa 0,0 l/m 0,0 km/h N 6,1 C 9,4 C 0,0 km/h
15.10.2015 09:00 10,1 C 79 % 1011,8 hPa 0,8 l/m 1,7 km/h N 6,6 C 10,1 C 6,0 km/h
15.10.2015 10:00 10,6 C 79 % 1011,7 hPa 0,0 l/m 1,0 km/h N 7,1 C 10,6 C 6,8 km/h
15.10.2015 11:00 11,4 C 78 % 1011,7 hPa 0,0 l/m 1,7 km/h N 7,7 C 11,4 C 8,9 km/h
15.10.2015 12:00 11,6 C 78 % 1011,8 hPa 0,0 l/m 2,0 km/h N 7,9 C 11,6 C 9,7 km/h
15.10.2015 13:00 11,8 C 78 % 1011,8 hPa 0,3 l/m 1,8 km/h N 8,1 C 11,8 C 9,3 km/h
15.10.2015 14:00 11,9 C 78 % 1011,7 hPa 0,0 l/m 0,4 km/h N 8,2 C 11,9 C 5,6 km/h
15.10.2015 15:00 11,7 C 78 % 1011,5 hPa 0,0 l/m 0,2 km/h N 8,0 C 11,7 C 3,6 km/h
15.10.2015 16:00 11,8 C 78 % 1011,7 hPa 1,0 l/m 0,3 km/h N 8,1 C 11,8 C 3,6 km/h
15.10.2015 17:00 11,7 C 78 % 1011,0 hPa 1,0 l/m 0,3 km/h N 8,0 C 11,7 C 3,2 km/h
15.10.2015 18:00 11,6 C 78 % 1011,3 hPa 0,0 l/m 0,3 km/h N 7,9 C 11,6 C 4,0 km/h
15.10.2015 19:00 11,7 C 78 % 1011,5 hPa 0,0 l/m 0,9 km/h N 8,0 C 11,7 C 8,0 km/h
15.10.2015 20:00 11,7 C 78 % 1012,1 hPa 0,3 l/m 0,2 km/h N 8,0 C 11,7 C 3,6 km/h
15.10.2015 21:00 11,7 C 78 % 1012,0 hPa 1,6 l/m 0,0 km/h N 8,0 C 11,7 C 0,4 km/h
15.10.2015 22:00 11,7 C 78 % 1011,8 hPa 1,8 l/m 0,2 km/h N 7,9 C 11,7 C 2,0 km/h
15.10.2015 23:00 11,7 C 78 % 1012,2 hPa 0,0 l/m 0,0 km/h N 7,9 C 11,7 C 0,0 km/h
16.10.2015 00:00 11,7 C 78 % 1012,2 hPa 0,0 l/m 0,4 km/h N 8,0 C 11,7 C 2,0 km/h
16.10.2015 01:00 10,2 C 79 % 1012,8 hPa 0,3 l/m 2,5 km/h N 6,6 C 10,2 C 7,6 km/h
16.10.2015 02:00 9,7 C 78 % 1013,2 hPa 0,0 l/m 0,5 km/h N 6,0 C 9,7 C 4,0 km/h
16.10.2015 03:00 9,5 C 78 % 1013,4 hPa 0,0 l/m 2,0 km/h N 5,9 C 9,5 C 8,4 km/h
16.10.2015 04:00 9,1 C 78 % 1013,8 hPa 0,0 l/m 0,6 km/h N 5,6 C 9,1 C 6,0 km/h
16.10.2015 05:00 8,9 C 79 % 1014,1 hPa 0,0 l/m 0,2 km/h N 5,4 C 8,9 C 2,0 km/h
16.10.2015 06:00 8,6 C 79 % 1014,4 hPa 0,0 l/m 0,0 km/h N 5,2 C 8,6 C 0,0 km/h
16.10.2015 07:00 8,6 C 79 % 1014,3 hPa 0,0 l/m 0,0 km/h N 5,2 C 8,6 C 0,0 km/h
16.10.2015 08:00 8,7 C 79 % 1014,7 hPa 0,0 l/m 0,0 km/h N 5,3 C 8,7 C 0,4 km/h
16.10.2015 09:00 9,1 C 80 % 1015,4 hPa 0,0 l/m 0,1 km/h N 5,9 C 9,1 C 1,6 km/h
16.10.2015 10:00 9,4 C 82 % 1015,5 hPa 0,0 l/m 1,9 km/h N 6,6 C 9,4 C 5,6 km/h
16.10.2015 11:00 9,4 C 84 % 1015,0 hPa 0,0 l/m 4,2 km/h N 6,8 C 9,4 C 9,7 km/h
16.10.2015 12:00 9,4 C 83 % 1014,8 hPa 0,0 l/m 2,3 km/h N 6,7 C 9,4 C 8,0 km/h
16.10.2015 13:00 9,1 C 83 % 1014,9 hPa 2,1 l/m 0,6 km/h N 6,3 C 9,1 C 4,4 km/h
16.10.2015 14:00 9,1 C 82 % 1014,8 hPa 1,0 l/m 0,5 km/h N 6,2 C 9,1 C 2,8 km/h
16.10.2015 15:00 9,4 C 81 % 1014,6 hPa 0,0 l/m 1,7 km/h N 6,4 C 9,4 C 7,2 km/h
16.10.2015 16:00 9,7 C 81 % 1014,9 hPa 0,0 l/m 0,4 km/h N 6,6 C 9,7 C 2,4 km/h
16.10.2015 17:00 9,5 C 82 % 1015,1 hPa 0,0 l/m 0,7 km/h N 6,6 C 9,5 C 5,6 km/h
16.10.2015 18:00 8,6 C 83 % 1015,5 hPa 0,0 l/m 0,7 km/h N 5,9 C 8,6 C 6,0 km/h
16.10.2015 19:00 8,3 C 84 % 1015,8 hPa 0,0 l/m 0,9 km/h N 5,6 C 8,3 C 7,2 km/h
16.10.2015 20:00 8,2 C 83 % 1016,1 hPa 0,0 l/m 1,2 km/h N 5,5 C 8,2 C 6,4 km/h
16.10.2015 21:00 8,1 C 83 % 1016,3 hPa 0,0 l/m 1,6 km/h N 5,4 C 8,1 C 8,0 km/h
16.10.2015 22:00 7,8 C 84 % 1016,9 hPa 0,3 l/m 1,1 km/h N 5,1 C 7,8 C 9,3 km/h
16.10.2015 23:00 7,5 C 83 % 1017,1 hPa 0,0 l/m 3,5 km/h N 4,9 C 7,5 C 14,5 km/h
17.10.2015 00:00 7,4 C 82 % 1017,1 hPa 0,0 l/m 4,7 km/h N 4,4 C 7,4 C 15,3 km/h
17.10.2015 01:00 7,3 C 80 % 1017,3 hPa 0,0 l/m 6,7 km/h N 4,2 C 7,0 C 19,3 km/h
17.10.2015 02:00 7,1 C 80 % 1017,5 hPa 0,0 l/m 5,0 km/h N 3,9 C 6,8 C 16,5 km/h
17.10.2015 03:00 6,6 C 81 % 1017,5 hPa 0,0 l/m 0,3 km/h N 3,6 C 6,6 C 6,4 km/h
17.10.2015 04:00 6,4 C 81 % 1017,5 hPa 0,0 l/m 1,7 km/h N 3,3 C 6,4 C 12,1 km/h
17.10.2015 05:00 6,4 C 81 % 1017,9 hPa 0,0 l/m 1,0 km/h N 3,3 C 6,4 C 7,6 km/h
17.10.2015 06:00 6,6 C 80 % 1018,0 hPa 0,0 l/m 2,8 km/h N 3,4 C 6,6 C 13,3 km/h
17.10.2015 07:00 6,7 C 80 % 1018,3 hPa 0,0 l/m 1,2 km/h N 3,5 C 6,7 C 5,3 km/h
17.10.2015 08:00 7,0 C 79 % 1018,6 hPa 0,0 l/m 1,9 km/h N 3,6 C 7,0 C 6,1 km/h
17.10.2015 09:00 7,5 C 78 % 1019,2 hPa 0,0 l/m 4,7 km/h N 3,9 C 7,5 C 13,7 km/h
17.10.2015 10:00 8,3 C 77 % 1019,2 hPa 0,0 l/m 5,8 km/h N 4,5 C 8,1 C 14,1 km/h
17.10.2015 11:00 9,1 C 71 % 1019,2 hPa 0,0 l/m 6,7 km/h N 4,1 C 8,8 C 17,3 km/h
17.10.2015 12:00 10,0 C 65 % 1018,8 hPa 0,0 l/m 7,5 km/h N 3,8 C 9,3 C 17,7 km/h
17.10.2015 13:00 10,1 C 65 % 1018,6 hPa 0,0 l/m 4,6 km/h N 3,9 C 10,1 C 13,3 km/h
17.10.2015 14:00 10,6 C 65 % 1018,5 hPa 0,0 l/m 3,4 km/h N 4,4 C 10,6 C 10,5 km/h
17.10.2015 15:00 10,8 C 65 % 1018,4 hPa 0,0 l/m 0,6 km/h N 4,4 C 10,8 C 7,2 km/h
17.10.2015 16:00 11,1 C 66 % 1018,4 hPa 0,0 l/m 0,2 km/h N 4,9 C 11,1 C 1,6 km/h
17.10.2015 17:00 10,8 C 69 % 1018,4 hPa 0,0 l/m 0,1 km/h N 5,2 C 10,8 C 1,6 km/h
17.10.2015 18:00 10,0 C 72 % 1018,5 hPa 0,0 l/m 0,0 km/h N 5,2 C 10,0 C 0,4 km/h
17.10.2015 19:00 9,2 C 77 % 1018,7 hPa 0,0 l/m 0,0 km/h N 5,3 C 9,2 C 0,0 km/h
17.10.2015 20:00 8,6 C 79 % 1018,6 hPa 0,0 l/m 0,0 km/h N 5,1 C 8,6 C 0,0 km/h
17.10.2015 21:00 7,7 C 80 % 1018,7 hPa 0,0 l/m 0,0 km/h N 4,5 C 7,7 C 0,0 km/h
17.10.2015 22:00 6,4 C 82 % 1018,8 hPa 0,0 l/m 0,0 km/h N 3,5 C 6,4 C 0,0 km/h
17.10.2015 23:00 6,2 C 83 % 1018,8 hPa 0,0 l/m 0,0 km/h N 3,6 C 6,2 C 0,0 km/h
18.10.2015 00:00 5,1 C 83 % 1018,7 hPa 0,0 l/m 0,0 km/h N 2,4 C 5,1 C 0,0 km/h
18.10.2015 01:00 4,1 C 83 % 1018,4 hPa 0,0 l/m 0,0 km/h N 1,5 C 4,1 C 0,0 km/h
18.10.2015 02:00 3,3 C 84 % 1018,4 hPa 0,0 l/m 0,0 km/h N 0,8 C 3,3 C 0,0 km/h
18.10.2015 03:00 3,0 C 83 % 1018,2 hPa 0,0 l/m 0,0 km/h N 0,4 C 3,0 C 0,0 km/h
18.10.2015 04:00 3,7 C 83 % 1018,0 hPa 0,0 l/m 0,0 km/h N 1,1 C 3,7 C 0,0 km/h
18.10.2015 05:00 4,7 C 82 % 1017,9 hPa 0,0 l/m 0,0 km/h N 1,9 C 4,7 C 0,4 km/h
18.10.2015 06:00 5,3 C 82 % 1017,7 hPa 0,0 l/m 0,0 km/h N 2,5 C 5,3 C 0,0 km/h
18.10.2015 07:00 5,6 C 81 % 1017,8 hPa 0,0 l/m 0,0 km/h N 2,7 C 5,6 C 0,0 km/h
18.10.2015 08:00 5,7 C 81 % 1018,3 hPa 0,0 l/m 0,0 km/h N 2,7 C 5,7 C 0,0 km/h
18.10.2015 09:00 6,6 C 81 % 1018,4 hPa 0,0 l/m 0,1 km/h N 3,6 C 6,6 C 1,6 km/h
18.10.2015 10:00 6,9 C 81 % 1018,5 hPa 0,0 l/m 0,1 km/h N 3,8 C 6,9 C 0,8 km/h
18.10.2015 11:00 7,3 C 81 % 1018,5 hPa 0,0 l/m 0,0 km/h N 4,2 C 7,3 C 0,4 km/h
18.10.2015 12:00 7,8 C 81 % 1018,5 hPa 0,0 l/m 0,2 km/h N 4,7 C 7,8 C 1,2 km/h
18.10.2015 13:00 8,6 C 82 % 1018,1 hPa 0,0 l/m 0,4 km/h N 5,7 C 8,6 C 3,2 km/h
18.10.2015 14:00 8,9 C 83 % 1017,8 hPa 0,0 l/m 0,1 km/h N 6,1 C 8,9 C 2,0 km/h
18.10.2015 15:00 8,9 C 84 % 1017,5 hPa 0,0 l/m 0,1 km/h N 6,4 C 8,9 C 1,6 km/h
18.10.2015 16:00 9,2 C 83 % 1017,1 hPa 0,0 l/m 0,1 km/h N 6,5 C 9,2 C 2,0 km/h
18.10.2015 17:00 9,0 C 83 % 1016,9 hPa 0,0 l/m 0,0 km/h N 6,3 C 9,0 C 0,8 km/h
18.10.2015 18:00 8,6 C 83 % 1017,0 hPa 0,0 l/m 0,0 km/h N 5,9 C 8,6 C 0,0 km/h
18.10.2015 19:00 8,2 C 83 % 1017,5 hPa 0,0 l/m 0,3 km/h N 5,5 C 8,2 C 1,6 km/h
18.10.2015 20:00 8,3 C 83 % 1017,9 hPa 0,0 l/m 1,6 km/h N 5,6 C 8,3 C 6,8 km/h
18.10.2015 21:00 8,1 C 83 % 1018,2 hPa 0,0 l/m 1,9 km/h N 5,4 C 8,1 C 8,4 km/h
18.10.2015 22:00 7,4 C 83 % 1018,3 hPa 0,0 l/m 0,0 km/h N 4,7 C 7,4 C 0,0 km/h
18.10.2015 23:00 6,8 C 83 % 1018,3 hPa 0,0 l/m 0,2 km/h N 4,1 C 6,8 C 1,6 km/h
Min-Datum _ 13.10.15 12.10.15 15.10.15 - 12.10.15 - 13.10.15 13.10.15 12.10.15
_ Min-Zeit 00:15 00:00 17:15 - 18:00 - 00:00 00:30 18:00
Minimum _ -0,7 C 64 % 1010,7 hPa - 0,0 km/h - -3,1 C -0,7 C 0,0 km/h
Max-Datum _ 15.10.15 18.10.15 12.10.15 14.10.15 12.10.15 - 15.10.15 15.10.15 12.10.15
_ Max-Zeit 14:00 15:15 22:30 05:00 12:00 - 14:00 14:00 01:00
Maximum _ 12,0 C 87 % 1020,3 hPa 2,3 l/m 10,3 km/h
N
- 8,3 C 12,0 C 29,0 km/h
N
Durchschnitt _ 7,4 C 79 % 1016,2 hPa #27,3 l/m 1,4 km/h N 4,0 C 7,3 C 5,6 km/h